Time;durP1;ratioP1;P1;durP2;ratioP2;P2;SDS_P1;SDS_P2;PMS_P1;PMS_P2;Temp;Humidity;BMP_temperature;BMP_pressure;BME280_temperature;BME280_humidity;BME280_pressure;Samples;Min_cycle;Max_cycle;Signal;HPM_P1;HPM_P2
2023/08/02 00:01:01;;;;;;;16.05;5.15;;;;;;;;;;5013019;28;25081;-73
2023/08/02 00:03:27;;;;;;;11.15;4.53;;;;;;;;;;5009196;28;25064;-72
2023/08/02 00:05:57;;;;;;;17.35;5.00;;;;;;;;;;5002719;28;25073;-73
2023/08/02 00:08:23;;;;;;;14.75;5.45;;;;;;;;;;5002447;28;25062;-73
2023/08/02 00:10:49;;;;;;;8.63;4.20;;;;;;;;;;5012286;28;25077;-73
2023/08/02 00:13:15;;;;;;;13.75;4.75;;;;;;;;;;4997983;28;25164;-74
2023/08/02 00:15:41;;;;;;;8.05;3.45;;;;;;;;;;5002440;28;25099;-73
2023/08/02 00:18:08;;;;;;;11.18;4.75;;;;;;;;;;4997258;28;25055;-73
2023/08/02 00:20:34;;;;;;;8.98;3.80;;;;;;;;;;4997954;28;25051;-73
2023/08/02 00:23:00;;;;;;;11.63;3.47;;;;;;;;;;4989475;28;25058;-73
2023/08/02 00:25:26;;;;;;;13.23;3.80;;;;;;;;;;5001146;28;25096;-73
2023/08/02 00:27:52;;;;;;;9.43;3.28;;;;;;;;;;4998921;28;25057;-73
2023/08/02 00:30:18;;;;;;;9.52;3.45;;;;;;;;;;5014274;28;25067;-73
2023/08/02 00:32:44;;;;;;;12.13;4.03;;;;;;;;;;5000202;28;25103;-71
2023/08/02 00:35:10;;;;;;;12.85;4.00;;;;;;;;;;5003336;28;25071;-72
2023/08/02 00:37:36;;;;;;;10.15;3.65;;;;;;;;;;4990789;28;25106;-73
2023/08/02 00:40:03;;;;;;;13.13;4.57;;;;;;;;;;5002754;28;25086;-73
2023/08/02 00:42:29;;;;;;;11.00;4.10;;;;;;;;;;4995707;28;25155;-74
2023/08/02 00:44:55;;;;;;;10.25;4.45;;;;;;;;;;4999384;28;25065;-72
2023/08/02 00:47:21;;;;;;;13.05;4.50;;;;;;;;;;5000030;28;25054;-72
2023/08/02 00:49:47;;;;;;;10.20;3.83;;;;;;;;;;5004549;28;25069;-74
2023/08/02 00:52:13;;;;;;;15.40;4.88;;;;;;;;;;4989580;28;25130;-72
2023/08/02 00:54:41;;;;;;;12.80;4.97;;;;;;;;;;5001305;28;25153;-73
2023/08/02 00:57:08;;;;;;;9.13;4.18;;;;;;;;;;5006318;28;25077;-72
2023/08/02 00:59:36;;;;;;;8.90;4.00;;;;;;;;;;4995267;28;25147;-74
2023/08/02 01:02:02;;;;;;;14.95;4.43;;;;;;;;;;5001277;28;25159;-73
2023/08/02 01:04:28;;;;;;;11.98;4.63;;;;;;;;;;5004309;28;25104;-72
2023/08/02 01:07:13;;;;;;;13.57;4.50;;;;;;;;;;4990024;28;25091;-74
2023/08/02 01:09:44;;;;;;;14.30;4.25;;;;;;;;;;4993216;28;25065;-73
2023/08/02 01:12:11;;;;;;;14.85;4.20;;;;;;;;;;4992307;28;25143;-72
2023/08/02 01:14:39;;;;;;;8.18;4.10;;;;;;;;;;5000755;28;25049;-73
2023/08/02 01:17:05;;;;;;;11.43;4.63;;;;;;;;;;4995262;28;25075;-73
2023/08/02 01:19:32;;;;;;;10.65;4.32;;;;;;;;;;4998981;28;25131;-73
2023/08/02 01:21:58;;;;;;;9.80;4.13;;;;;;;;;;4989380;28;25073;-72
2023/08/02 01:24:27;;;;;;;12.80;4.28;;;;;;;;;;4993671;28;25083;-72
2023/08/02 01:26:54;;;;;;;12.75;4.53;;;;;;;;;;4998736;28;25147;-72
2023/08/02 01:29:23;;;;;;;10.48;4.43;;;;;;;;;;4990894;28;25084;-72
2023/08/02 01:31:49;;;;;;;12.93;4.85;;;;;;;;;;4988215;28;25054;-73
2023/08/02 01:34:15;;;;;;;12.68;4.38;;;;;;;;;;4995480;28;25120;-72
2023/08/02 01:36:42;;;;;;;12.82;4.22;;;;;;;;;;4996527;28;25085;-72
2023/08/02 01:39:08;;;;;;;13.15;4.40;;;;;;;;;;4987412;28;25105;-74
2023/08/02 01:41:34;;;;;;;8.55;4.82;;;;;;;;;;4998006;28;25106;-72
2023/08/02 01:44:00;;;;;;;14.80;4.63;;;;;;;;;;5002355;28;25093;-72
2023/08/02 01:46:26;;;;;;;17.05;4.82;;;;;;;;;;5005549;28;25131;-72
2023/08/02 01:48:52;;;;;;;12.75;4.35;;;;;;;;;;4986606;28;25053;-73
2023/08/02 01:51:18;;;;;;;15.13;4.55;;;;;;;;;;4986826;28;25108;-72
2023/08/02 01:53:44;;;;;;;11.13;4.00;;;;;;;;;;4982118;28;25144;-71
2023/08/02 01:56:10;;;;;;;12.38;4.72;;;;;;;;;;4994372;28;25048;-73
2023/08/02 01:58:36;;;;;;;12.73;3.95;;;;;;;;;;4998114;28;25065;-72
2023/08/02 02:01:02;;;;;;;14.73;4.57;;;;;;;;;;4990340;28;25109;-74
2023/08/02 02:03:28;;;;;;;8.68;3.88;;;;;;;;;;4991255;28;25125;-73
2023/08/02 02:05:54;;;;;;;13.23;4.82;;;;;;;;;;4993669;28;25064;-72
2023/08/02 02:08:21;;;;;;;14.35;4.72;;;;;;;;;;5004151;28;25158;-73
2023/08/02 02:10:51;;;;;;;12.48;4.05;;;;;;;;;;4993042;28;25066;-74
2023/08/02 02:13:18;;;;;;;11.75;4.63;;;;;;;;;;4996244;28;25070;-73
2023/08/02 02:15:44;;;;;;;13.70;4.07;;;;;;;;;;5006951;28;25146;-74
2023/08/02 02:18:10;;;;;;;8.00;4.13;;;;;;;;;;4999502;28;25055;-72
2023/08/02 02:20:36;;;;;;;8.80;4.30;;;;;;;;;;4990414;28;25083;-73
2023/08/02 02:23:02;;;;;;;14.60;5.22;;;;;;;;;;4998790;28;25076;-74
2023/08/02 02:25:28;;;;;;;12.35;4.38;;;;;;;;;;4995095;28;25125;-73
2023/08/02 02:27:53;;;;;;;10.40;4.25;;;;;;;;;;5001053;28;25076;-73
2023/08/02 02:30:19;;;;;;;10.48;4.18;;;;;;;;;;4998520;28;25135;-73
2023/08/02 02:32:45;;;;;;;16.80;4.57;;;;;;;;;;5002042;28;25095;-73
2023/08/02 02:35:15;;;;;;;12.63;4.70;;;;;;;;;;4994782;28;25122;-73
2023/08/02 02:37:41;;;;;;;14.32;4.15;;;;;;;;;;5012693;28;25078;-73
2023/08/02 02:40:07;;;;;;;16.10;4.32;;;;;;;;;;5008186;28;25084;-72
2023/08/02 02:42:33;;;;;;;12.52;4.25;;;;;;;;;;5002028;28;25128;-73
2023/08/02 02:44:59;;;;;;;11.13;3.83;;;;;;;;;;5003771;28;25131;-73
2023/08/02 02:47:25;;;;;;;9.80;4.13;;;;;;;;;;5002306;28;25073;-76
2023/08/02 02:49:51;;;;;;;9.23;4.18;;;;;;;;;;4991234;28;25069;-73
2023/08/02 02:52:17;;;;;;;12.18;3.63;;;;;;;;;;4990328;28;25168;-73
2023/08/02 02:54:43;;;;;;;12.07;4.05;;;;;;;;;;5010625;28;25076;-74
2023/08/02 02:57:10;;;;;;;9.05;4.03;;;;;;;;;;5005093;28;25099;-73
2023/08/02 02:59:36;;;;;;;13.20;5.03;;;;;;;;;;4992906;28;25064;-72
2023/08/02 03:02:02;;;;;;;13.10;4.65;;;;;;;;;;5007491;28;25093;-74
2023/08/02 03:04:28;;;;;;;10.93;3.85;;;;;;;;;;4992405;28;25088;-73
2023/08/02 03:06:54;;;;;;;6.97;3.53;;;;;;;;;;4993816;28;25063;-73
2023/08/02 03:09:20;;;;;;;12.13;4.75;;;;;;;;;;4997450;28;25064;-73
2023/08/02 03:11:46;;;;;;;9.00;4.45;;;;;;;;;;5003734;28;25042;-73
2023/08/02 03:14:13;;;;;;;9.50;4.38;;;;;;;;;;4994374;28;25087;-73
2023/08/02 03:16:42;;;;;;;11.52;3.95;;;;;;;;;;4997122;28;25081;-72
2023/08/02 03:19:09;;;;;;;17.67;4.70;;;;;;;;;;4987206;28;25092;-73
2023/08/02 03:21:35;;;;;;;11.70;4.93;;;;;;;;;;5000459;28;25094;-73
2023/08/02 03:24:01;;;;;;;12.10;3.90;;;;;;;;;;4994642;28;26191;-73
2023/08/02 03:26:27;;;;;;;10.07;4.60;;;;;;;;;;4996099;28;25070;-74
2023/08/02 03:28:53;;;;;;;10.20;3.72;;;;;;;;;;4998353;28;25143;-72
2023/08/02 03:31:19;;;;;;;15.38;4.45;;;;;;;;;;4999553;28;25072;-74
2023/08/02 03:33:45;;;;;;;9.77;3.85;;;;;;;;;;4993713;28;25054;-73
2023/08/02 03:36:11;;;;;;;10.13;3.70;;;;;;;;;;5002280;28;25050;-73
2023/08/02 03:38:36;;;;;;;11.05;3.72;;;;;;;;;;4999406;28;25129;-73
2023/08/02 03:41:03;;;;;;;10.73;4.07;;;;;;;;;;4994826;28;25051;-74
2023/08/02 03:43:29;;;;;;;9.93;4.15;;;;;;;;;;5003494;28;25072;-72
2023/08/02 03:45:55;;;;;;;10.23;4.20;;;;;;;;;;4996272;28;25162;-73
2023/08/02 03:48:21;;;;;;;8.10;4.10;;;;;;;;;;5003294;28;25059;-73
2023/08/02 03:50:47;;;;;;;7.00;3.85;;;;;;;;;;5011762;28;25159;-72
2023/08/02 03:53:13;;;;;;;9.23;4.18;;;;;;;;;;4997943;28;25105;-75
2023/08/02 03:55:39;;;;;;;9.40;4.28;;;;;;;;;;4993527;28;25080;-73
2023/08/02 03:58:04;;;;;;;9.38;4.82;;;;;;;;;;4996409;28;25075;-76
2023/08/02 04:00:31;;;;;;;10.25;4.55;;;;;;;;;;4998683;28;25067;-72
2023/08/02 04:02:56;;;;;;;11.82;4.68;;;;;;;;;;5011219;28;25149;-72
2023/08/02 04:05:22;;;;;;;13.10;4.30;;;;;;;;;;5004175;28;25063;-72
2023/08/02 04:07:48;;;;;;;9.73;4.97;;;;;;;;;;5001143;28;25093;-72
2023/08/02 04:10:14;;;;;;;11.00;4.78;;;;;;;;;;4998430;28;25067;-74
2023/08/02 04:12:40;;;;;;;12.13;5.18;;;;;;;;;;5009931;28;25090;-73
2023/08/02 04:15:07;;;;;;;8.70;5.10;;;;;;;;;;5009167;28;25144;-71
2023/08/02 04:17:33;;;;;;;12.20;5.05;;;;;;;;;;5014369;28;25070;-71
2023/08/02 04:19:59;;;;;;;8.82;4.63;;;;;;;;;;5002896;28;25130;-72
2023/08/02 04:22:25;;;;;;;12.70;4.95;;;;;;;;;;5002629;28;25055;-72
2023/08/02 04:24:54;;;;;;;14.50;4.82;;;;;;;;;;4996495;28;25061;-72
2023/08/02 04:27:20;;;;;;;8.80;5.13;;;;;;;;;;5009693;28;25110;-72
2023/08/02 04:29:46;;;;;;;8.13;4.13;;;;;;;;;;4997060;28;25089;-73
2023/08/02 04:32:12;;;;;;;8.52;4.70;;;;;;;;;;5006010;28;25067;-72
2023/08/02 04:34:38;;;;;;;11.45;4.50;;;;;;;;;;5007781;28;25078;-74
2023/08/02 04:37:04;;;;;;;12.00;4.30;;;;;;;;;;5008369;28;25054;-72
2023/08/02 04:39:30;;;;;;;11.98;4.80;;;;;;;;;;4996501;28;25189;-73
2023/08/02 04:41:56;;;;;;;9.77;4.95;;;;;;;;;;5005179;28;25024;-72
2023/08/02 04:44:21;;;;;;;12.63;4.80;;;;;;;;;;5001378;28;25141;-73
2023/08/02 04:46:47;;;;;;;11.18;4.47;;;;;;;;;;4999151;28;25059;-73
2023/08/02 04:49:13;;;;;;;8.45;4.93;;;;;;;;;;5000919;28;25065;-73
2023/08/02 04:51:39;;;;;;;7.40;4.82;;;;;;;;;;4996285;28;25101;-72
2023/08/02 04:54:05;;;;;;;11.82;4.53;;;;;;;;;;5003092;28;25101;-72
2023/08/02 04:56:31;;;;;;;5.85;4.50;;;;;;;;;;5002285;28;25103;-71
2023/08/02 04:58:57;;;;;;;9.88;4.75;;;;;;;;;;4998383;28;25059;-72
2023/08/02 05:01:23;;;;;;;7.60;4.65;;;;;;;;;;5002770;28;25063;-72
2023/08/02 05:03:49;;;;;;;9.82;5.15;;;;;;;;;;4995611;28;25059;-72
2023/08/02 05:06:15;;;;;;;7.78;4.78;;;;;;;;;;4997161;28;25088;-73
2023/08/02 05:08:41;;;;;;;11.02;5.15;;;;;;;;;;5003528;28;25098;-72
2023/08/02 05:11:08;;;;;;;6.63;4.75;;;;;;;;;;5002489;28;25064;-73
2023/08/02 05:13:35;;;;;;;10.35;4.18;;;;;;;;;;4997616;28;25148;-74
2023/08/02 05:16:01;;;;;;;11.25;4.78;;;;;;;;;;4995289;28;25053;-73
2023/08/02 05:18:27;;;;;;;14.43;5.10;;;;;;;;;;5003438;28;25097;-72
2023/08/02 05:20:53;;;;;;;9.25;5.03;;;;;;;;;;4994359;28;25133;-74
2023/08/02 05:23:19;;;;;;;9.75;4.55;;;;;;;;;;4998224;28;25061;-72
2023/08/02 05:25:45;;;;;;;13.82;5.15;;;;;;;;;;4993363;28;25110;-73
2023/08/02 05:28:11;;;;;;;13.02;5.95;;;;;;;;;;5007941;28;25071;-75
2023/08/02 05:30:38;;;;;;;7.53;5.10;;;;;;;;;;5002784;28;25077;-74
2023/08/02 05:33:06;;;;;;;8.57;4.60;;;;;;;;;;4994971;28;25107;-73
2023/08/02 05:35:32;;;;;;;8.35;4.95;;;;;;;;;;5004763;28;25073;-74
2023/08/02 05:37:59;;;;;;;6.45;4.60;;;;;;;;;;4993691;28;25159;-73
2023/08/02 05:40:25;;;;;;;8.40;5.13;;;;;;;;;;4992437;28;25115;-74
2023/08/02 05:42:51;;;;;;;11.68;5.20;;;;;;;;;;4990390;28;25157;-77
2023/08/02 05:45:17;;;;;;;10.85;5.38;;;;;;;;;;5010962;28;25146;-74
2023/08/02 05:47:44;;;;;;;9.55;5.57;;;;;;;;;;4998207;28;25146;-74
2023/08/02 05:50:10;;;;;;;14.90;6.28;;;;;;;;;;4995014;28;25073;-74
2023/08/02 05:52:36;;;;;;;7.95;5.05;;;;;;;;;;5010384;28;25053;-73
2023/08/02 05:55:02;;;;;;;9.75;4.63;;;;;;;;;;4996637;28;25060;-73
2023/08/02 05:57:28;;;;;;;6.30;4.03;;;;;;;;;;5002099;28;25143;-74
2023/08/02 05:59:54;;;;;;;7.72;4.03;;;;;;;;;;4999624;28;25135;-73
2023/08/02 06:02:20;;;;;;;7.80;4.13;;;;;;;;;;4996621;28;25139;-74
2023/08/02 06:04:46;;;;;;;7.68;3.70;;;;;;;;;;5008515;28;25142;-74
2023/08/02 06:07:12;;;;;;;4.35;3.28;;;;;;;;;;5000058;28;25075;-72
2023/08/02 06:09:38;;;;;;;6.90;3.60;;;;;;;;;;5012895;28;25152;-72
2023/08/02 06:12:04;;;;;;;5.22;3.85;;;;;;;;;;5011924;28;25134;-74
2023/08/02 06:14:31;;;;;;;4.32;3.05;;;;;;;;;;4988641;28;25089;-73
2023/08/02 06:16:57;;;;;;;5.82;3.78;;;;;;;;;;5017470;28;25142;-73
2023/08/02 06:19:23;;;;;;;4.20;3.30;;;;;;;;;;4996050;28;25067;-72
2023/08/02 06:21:49;;;;;;;4.72;3.35;;;;;;;;;;5006825;28;25073;-73
2023/08/02 06:24:15;;;;;;;6.53;3.33;;;;;;;;;;4988020;28;25060;-73
2023/08/02 06:26:41;;;;;;;3.38;3.08;;;;;;;;;;4993876;28;25085;-73
2023/08/02 06:29:08;;;;;;;6.85;3.63;;;;;;;;;;4996862;28;25071;-73
2023/08/02 06:31:34;;;;;;;4.90;3.13;;;;;;;;;;4993225;28;25179;-73
2023/08/02 06:34:00;;;;;;;5.03;3.42;;;;;;;;;;4994423;28;25161;-74
2023/08/02 06:36:26;;;;;;;4.75;3.13;;;;;;;;;;4977266;28;25142;-74
2023/08/02 06:38:52;;;;;;;5.07;3.20;;;;;;;;;;4986957;28;25077;-73
2023/08/02 06:41:18;;;;;;;3.78;3.13;;;;;;;;;;4998521;28;25061;-73
2023/08/02 06:43:44;;;;;;;5.57;3.28;;;;;;;;;;5000054;28;25073;-74
2023/08/02 06:46:10;;;;;;;5.28;2.53;;;;;;;;;;4992913;28;25099;-75
2023/08/02 06:48:36;;;;;;;3.35;3.05;;;;;;;;;;4999890;28;25070;-75
2023/08/02 06:51:02;;;;;;;3.28;2.65;;;;;;;;;;4995606;28;25046;-73
2023/08/02 06:53:28;;;;;;;3.33;2.50;;;;;;;;;;5003472;28;25151;-73
2023/08/02 06:55:54;;;;;;;3.00;2.70;;;;;;;;;;5007824;28;25058;-75
2023/08/02 06:58:20;;;;;;;3.17;2.70;;;;;;;;;;4989248;28;25066;-74
2023/08/02 07:00:45;;;;;;;2.45;2.20;;;;;;;;;;4996321;28;25073;-73
2023/08/02 07:03:11;;;;;;;2.90;2.17;;;;;;;;;;5004401;28;25071;-74
2023/08/02 07:05:38;;;;;;;2.75;2.35;;;;;;;;;;4985758;28;25075;-73
2023/08/02 07:08:04;;;;;;;4.57;2.50;;;;;;;;;;4994775;28;25066;-73
2023/08/02 07:10:30;;;;;;;4.68;2.70;;;;;;;;;;4997262;28;25067;-75
2023/08/02 07:12:57;;;;;;;2.90;2.35;;;;;;;;;;4984928;28;25055;-75
2023/08/02 07:15:23;;;;;;;3.28;2.58;;;;;;;;;;4988667;28;25150;-73
2023/08/02 07:17:49;;;;;;;2.58;2.38;;;;;;;;;;4989456;28;25147;-75
2023/08/02 07:20:15;;;;;;;5.25;2.75;;;;;;;;;;5003386;28;25065;-74
2023/08/02 07:22:43;;;;;;;3.70;2.47;;;;;;;;;;4994238;28;25090;-73
2023/08/02 07:25:10;;;;;;;2.28;1.92;;;;;;;;;;5006687;28;25106;-75
2023/08/02 07:27:36;;;;;;;2.35;1.88;;;;;;;;;;4988234;28;25162;-75
2023/08/02 07:30:03;;;;;;;2.38;1.92;;;;;;;;;;4991306;28;25190;-74
2023/08/02 07:32:29;;;;;;;1.80;1.70;;;;;;;;;;4995268;28;25059;-74
2023/08/02 07:34:55;;;;;;;2.13;1.90;;;;;;;;;;4999979;28;25077;-74
2023/08/02 07:37:21;;;;;;;2.65;1.80;;;;;;;;;;4998621;28;25079;-74
2023/08/02 07:39:47;;;;;;;1.85;1.45;;;;;;;;;;4991487;28;25060;-75
2023/08/02 07:42:13;;;;;;;2.22;1.80;;;;;;;;;;4983030;28;25070;-74
2023/08/02 07:44:39;;;;;;;1.75;1.58;;;;;;;;;;4998746;28;24716;-74
2023/08/02 07:47:05;;;;;;;2.35;2.10;;;;;;;;;;4994549;28;25053;-75
2023/08/02 07:49:32;;;;;;;2.92;1.67;;;;;;;;;;4988395;28;25078;-74
2023/08/02 07:51:58;;;;;;;1.92;1.70;;;;;;;;;;4997000;28;25110;-74
2023/08/02 07:54:24;;;;;;;2.10;1.90;;;;;;;;;;4994756;28;25164;-74
2023/08/02 07:56:50;;;;;;;2.10;1.85;;;;;;;;;;4992402;28;25062;-74
2023/08/02 07:59:16;;;;;;;2.72;1.70;;;;;;;;;;4995395;28;25099;-74
2023/08/02 08:01:43;;;;;;;1.65;1.55;;;;;;;;;;4996097;28;25052;-74
2023/08/02 08:04:09;;;;;;;1.10;1.10;;;;;;;;;;5009924;28;25050;-74
2023/08/02 08:06:35;;;;;;;2.50;1.95;;;;;;;;;;4998359;28;25147;-74
2023/08/02 08:09:01;;;;;;;1.40;1.30;;;;;;;;;;5001047;28;25064;-73
2023/08/02 08:11:28;;;;;;;5.57;1.40;;;;;;;;;;4992251;28;25120;-73
2023/08/02 08:13:54;;;;;;;1.35;1.27;;;;;;;;;;5002298;28;25148;-74
2023/08/02 08:16:20;;;;;;;2.65;1.95;;;;;;;;;;4999049;28;25047;-75
2023/08/02 08:18:46;;;;;;;1.80;1.70;;;;;;;;;;4998465;28;25078;-75
2023/08/02 08:21:12;;;;;;;2.42;1.67;;;;;;;;;;4992145;28;25089;-75
2023/08/02 08:23:38;;;;;;;3.22;1.48;;;;;;;;;;4992665;28;25189;-75
2023/08/02 08:26:04;;;;;;;1.65;1.55;;;;;;;;;;4990524;28;25072;-73
2023/08/02 08:28:31;;;;;;;1.75;1.60;;;;;;;;;;4989877;28;25144;-73
2023/08/02 08:31:00;;;;;;;2.03;1.83;;;;;;;;;;4993390;28;25066;-74
2023/08/02 08:33:26;;;;;;;1.80;1.70;;;;;;;;;;5005008;28;25082;-75
2023/08/02 08:35:52;;;;;;;2.42;1.92;;;;;;;;;;5008887;28;25058;-73
2023/08/02 08:38:18;;;;;;;4.95;2.67;;;;;;;;;;5033940;28;25062;-73
2023/08/02 08:40:50;;;;;;;2.35;2.15;;;;;;;;;;5004332;28;25062;-75
2023/08/02 08:43:16;;;;;;;2.10;1.98;;;;;;;;;;4991003;28;25075;-74
2023/08/02 08:45:44;;;;;;;3.20;2.38;;;;;;;;;;4996123;28;25103;-74
2023/08/02 08:48:10;;;;;;;2.20;1.95;;;;;;;;;;5008610;28;25073;-72
2023/08/02 08:50:36;;;;;;;1.75;1.65;;;;;;;;;;4989240;28;25114;-73
2023/08/02 08:53:05;;;;;;;2.38;1.80;;;;;;;;;;4992077;28;25053;-73
2023/08/02 08:55:33;;;;;;;1.90;1.80;;;;;;;;;;5005903;28;25048;-73
2023/08/02 08:57:59;;;;;;;3.05;2.42;;;;;;;;;;4986510;28;25147;-75
2023/08/02 09:00:25;;;;;;;2.05;1.85;;;;;;;;;;4984177;28;25073;-73
2023/08/02 09:02:51;;;;;;;2.15;1.92;;;;;;;;;;4988732;28;25063;-72
2023/08/02 09:05:17;;;;;;;1.90;1.80;;;;;;;;;;4985338;28;25051;-73
2023/08/02 09:07:44;;;;;;;2.45;2.00;;;;;;;;;;4998412;28;25042;-74
2023/08/02 09:10:10;;;;;;;2.72;2.42;;;;;;;;;;4991990;28;25114;-73
2023/08/02 09:12:46;;;;;;;2.63;2.42;;;;;;;;;;4994854;28;25144;-72
2023/08/02 09:15:13;;;;;;;3.58;2.25;;;;;;;;;;4998097;28;25111;-73
2023/08/02 09:17:52;;;;;;;2.33;2.13;;;;;;;;;;4999043;28;25057;-73
2023/08/02 09:20:20;;;;;;;3.42;2.70;;;;;;;;;;4992415;28;25060;-73
2023/08/02 09:22:46;;;;;;;2.72;2.53;;;;;;;;;;4989705;28;25100;-73
2023/08/02 09:25:25;;;;;;;2.75;2.55;;;;;;;;;;4996240;28;25101;-73
2023/08/02 09:27:52;;;;;;;3.42;3.13;;;;;;;;;;4992198;28;25078;-74
2023/08/02 09:30:32;;;;;;;5.28;2.65;;;;;;;;;;4996584;28;25075;-72
2023/08/02 09:33:08;;;;;;;2.90;2.47;;;;;;;;;;4995784;28;25137;-72
2023/08/02 09:35:51;;;;;;;3.35;2.20;;;;;;;;;;5003702;28;25062;-73
2023/08/02 09:38:17;;;;;;;7.45;1.90;;;;;;;;;;5009060;28;25091;-74
2023/08/02 09:40:47;;;;;;;2.17;1.63;;;;;;;;;;5007208;28;25055;-74
2023/08/02 09:43:14;;;;;;;4.20;1.60;;;;;;;;;;5005260;28;25079;-73
2023/08/02 09:45:40;;;;;;;2.92;1.70;;;;;;;;;;5008425;28;25059;-72
2023/08/02 09:48:06;;;;;;;2.35;1.58;;;;;;;;;;4996517;28;25152;-72
2023/08/02 09:50:33;;;;;;;4.50;1.70;;;;;;;;;;5003035;28;25070;-73
2023/08/02 09:53:13;;;;;;;2.15;1.30;;;;;;;;;;4998648;28;25099;-71
2023/08/02 09:55:41;;;;;;;5.97;1.65;;;;;;;;;;4996785;28;24781;-73
2023/08/02 09:58:07;;;;;;;2.88;1.60;;;;;;;;;;4992713;28;25047;-72
2023/08/02 10:00:33;;;;;;;1.98;1.15;;;;;;;;;;4992963;28;25076;-71
2023/08/02 10:03:00;;;;;;;3.92;1.27;;;;;;;;;;5009911;28;25060;-73
2023/08/02 10:05:26;;;;;;;2.50;1.27;;;;;;;;;;5005075;28;25189;-72
2023/08/02 10:07:53;;;;;;;3.72;1.20;;;;;;;;;;4998465;28;25097;-73
2023/08/02 10:10:24;;;;;;;1.85;0.80;;;;;;;;;;5005210;28;25180;-72
2023/08/02 10:12:53;;;;;;;4.15;0.90;;;;;;;;;;4991522;28;25139;-73
2023/08/02 10:15:19;;;;;;;3.97;1.02;;;;;;;;;;4997052;28;25127;-72
2023/08/02 10:17:47;;;;;;;3.33;1.23;;;;;;;;;;5003982;28;25114;-72
2023/08/02 10:20:14;;;;;;;5.30;1.23;;;;;;;;;;4998676;28;25061;-72
2023/08/02 10:22:41;;;;;;;2.35;1.05;;;;;;;;;;4997773;28;25077;-72
2023/08/02 10:25:07;;;;;;;7.63;1.73;;;;;;;;;;5000424;28;25130;-73
2023/08/02 10:27:34;;;;;;;3.22;1.63;;;;;;;;;;4989343;28;25073;-72
2023/08/02 10:30:00;;;;;;;10.07;1.70;;;;;;;;;;5002312;28;25065;-74
2023/08/02 10:32:26;;;;;;;4.05;1.10;;;;;;;;;;5005558;28;25071;-73
2023/08/02 10:34:52;;;;;;;4.90;1.60;;;;;;;;;;5009583;28;25067;-73
2023/08/02 10:37:19;;;;;;;9.95;1.90;;;;;;;;;;4995262;28;25071;-73
2023/08/02 10:39:48;;;;;;;6.00;1.35;;;;;;;;;;5003019;28;25065;-73
2023/08/02 10:42:17;;;;;;;7.53;1.35;;;;;;;;;;4982642;28;25114;-73
2023/08/02 10:45:07;;;;;;;6.47;1.50;;;;;;;;;;4992717;28;25100;-72
2023/08/02 10:47:33;;;;;;;5.45;1.70;;;;;;;;;;4991493;28;25060;-72
2023/08/02 10:50:00;;;;;;;8.32;2.55;;;;;;;;;;5004461;28;25074;-71
2023/08/02 10:52:33;;;;;;;6.68;1.85;;;;;;;;;;4994887;28;25105;-72
2023/08/02 10:55:06;;;;;;;5.35;1.45;;;;;;;;;;4992566;28;25059;-74
2023/08/02 10:57:31;;;;;;;;;;;;;;;;;;5000356;28;25181;-72
2023/08/02 10:59:58;;;;;;;7.18;1.70;;;;;;;;;;4999079;28;25063;-72
2023/08/02 11:02:27;;;;;;;7.88;1.88;;;;;;;;;;5005038;28;25047;-73
2023/08/02 11:04:53;;;;;;;8.75;2.63;;;;;;;;;;5012230;28;25060;-75
2023/08/02 11:07:22;;;;;;;9.25;2.20;;;;;;;;;;4997035;28;25383;-72
2023/08/02 11:09:52;;;;;;;13.23;2.92;;;;;;;;;;5000802;28;25073;-74
2023/08/02 11:12:18;;;;;;;9.68;1.73;;;;;;;;;;5002344;28;25095;-74
2023/08/02 11:14:45;;;;;;;9.15;2.13;;;;;;;;;;5007455;28;24912;-72
2023/08/02 11:17:15;;;;;;;5.93;1.85;;;;;;;;;;4999709;28;25129;-72
2023/08/02 11:19:46;;;;;;;6.15;1.55;;;;;;;;;;4999038;28;25160;-74
2023/08/02 11:22:12;;;;;;;6.10;1.38;;;;;;;;;;5008518;28;25064;-74
2023/08/02 11:24:42;;;;;;;6.55;1.33;;;;;;;;;;5005678;28;25072;-72
2023/08/02 11:27:08;;;;;;;5.00;1.13;;;;;;;;;;5007087;28;25060;-73
2023/08/02 11:29:35;;;;;;;2.72;1.27;;;;;;;;;;4995277;28;25074;-74
2023/08/02 11:32:04;;;;;;;7.05;1.42;;;;;;;;;;4994845;28;25051;-73
2023/08/02 11:34:35;;;;;;;5.28;1.20;;;;;;;;;;4995946;28;25068;-71
2023/08/02 11:37:02;;;;;;;3.95;1.10;;;;;;;;;;4987461;28;25056;-73
2023/08/02 11:39:28;;;;;;;6.78;1.00;;;;;;;;;;4995601;28;25064;-72
2023/08/02 11:42:04;;;;;;;2.90;0.95;;;;;;;;;;4996444;28;25055;-73
2023/08/02 11:44:32;;;;;;;2.65;0.93;;;;;;;;;;4999001;28;25078;-74
2023/08/02 11:46:58;;;;;;;4.43;0.88;;;;;;;;;;4989481;28;25049;-73
2023/08/02 11:49:25;;;;;;;5.82;0.95;;;;;;;;;;5002543;28;25075;-75
2023/08/02 11:51:51;;;;;;;6.03;0.93;;;;;;;;;;5004172;28;25060;-72
2023/08/02 11:54:17;;;;;;;2.70;0.88;;;;;;;;;;5005286;28;25058;-72
2023/08/02 11:56:43;;;;;;;3.60;0.90;;;;;;;;;;4998728;28;25061;-73
2023/08/02 11:59:10;;;;;;;5.78;1.88;;;;;;;;;;4991490;28;25084;-74
2023/08/02 12:01:38;;;;;;;5.95;1.10;;;;;;;;;;4993664;28;25047;-72
2023/08/02 12:04:05;;;;;;;3.40;1.20;;;;;;;;;;4998578;28;25117;-72
2023/08/02 12:06:51;;;;;;;3.90;1.00;;;;;;;;;;5001541;28;25171;-72
2023/08/02 12:09:18;;;;;;;2.25;0.75;;;;;;;;;;4990701;28;25054;-77
2023/08/02 12:11:45;;;;;;;5.03;1.38;;;;;;;;;;5004486;28;25072;-72
2023/08/02 12:14:11;;;;;;;2.97;1.20;;;;;;;;;;5003671;28;25092;-74
2023/08/02 12:16:40;;;;;;;4.90;0.93;;;;;;;;;;5001540;28;25160;-72
2023/08/02 12:19:06;;;;;;;1.95;0.80;;;;;;;;;;4995614;28;25067;-71
2023/08/02 12:21:32;;;;;;;2.92;1.25;;;;;;;;;;5009520;28;25062;-73
2023/08/02 12:23:58;;;;;;;5.88;1.20;;;;;;;;;;5006991;28;25049;-71
2023/08/02 12:26:28;;;;;;;2.08;0.80;;;;;;;;;;5016625;28;25088;-73
2023/08/02 12:28:54;;;;;;;6.13;1.63;;;;;;;;;;5015537;28;25074;-73
2023/08/02 12:31:20;;;;;;;5.72;1.33;;;;;;;;;;5038219;28;25071;-73
2023/08/02 12:33:48;;;;;;;5.88;1.27;;;;;;;;;;5009044;28;25119;-72
2023/08/02 12:36:27;;;;;;;5.32;0.82;;;;;;;;;;5005572;28;25053;-73
2023/08/02 12:38:53;;;;;;;4.60;0.80;;;;;;;;;;4998610;28;25095;-72
2023/08/02 12:41:19;;;;;;;5.03;0.90;;;;;;;;;;5005228;28;25099;-71
2023/08/02 12:43:45;;;;;;;2.03;0.75;;;;;;;;;;5002987;28;25075;-71
2023/08/02 12:46:11;;;;;;;3.75;1.40;;;;;;;;;;5007197;28;25056;-71
2023/08/02 12:48:36;;;;;;;7.05;1.08;;;;;;;;;;5008114;28;25134;-72
2023/08/02 12:51:03;;;;;;;5.20;0.88;;;;;;;;;;5025721;28;25072;-72
2023/08/02 12:53:28;;;;;;;1.70;0.60;;;;;;;;;;5008850;28;25098;-73
2023/08/02 12:55:54;;;;;;;2.75;0.63;;;;;;;;;;5004892;28;25160;-75
2023/08/02 12:58:21;;;;;;;3.30;0.95;;;;;;;;;;5006880;28;25050;-73
2023/08/02 13:00:47;;;;;;;4.65;0.95;;;;;;;;;;5002939;28;25091;-72
2023/08/02 13:03:13;;;;;;;4.20;0.80;;;;;;;;;;5008592;28;25076;-73
2023/08/02 13:05:39;;;;;;;6.57;1.02;;;;;;;;;;5004181;28;25062;-71
2023/08/02 13:08:05;;;;;;;2.80;0.90;;;;;;;;;;5009950;28;25071;-73
2023/08/02 13:10:30;;;;;;;2.88;1.30;;;;;;;;;;5009679;28;25058;-72
2023/08/02 13:12:56;;;;;;;4.75;1.08;;;;;;;;;;5008232;28;25066;-71
2023/08/02 13:15:22;;;;;;;3.40;1.13;;;;;;;;;;4995946;28;25091;-74
2023/08/02 13:17:48;;;;;;;5.43;1.25;;;;;;;;;;5008885;28;25176;-72
2023/08/02 13:20:16;;;;;;;5.63;1.65;;;;;;;;;;4999301;28;25061;-74
2023/08/02 13:22:42;;;;;;;7.90;1.67;;;;;;;;;;5009992;28;25084;-73
2023/08/02 13:25:08;;;;;;;5.65;1.42;;;;;;;;;;5000251;28;25063;-72
2023/08/02 13:27:34;;;;;;;7.93;1.50;;;;;;;;;;5000826;28;25082;-72
2023/08/02 13:30:00;;;;;;;12.25;2.25;;;;;;;;;;5000569;28;25114;-71
2023/08/02 13:32:28;;;;;;;13.23;2.08;;;;;;;;;;4992959;28;25174;-73
2023/08/02 13:34:54;;;;;;;11.30;2.22;;;;;;;;;;4994233;28;25180;-72
2023/08/02 13:37:20;;;;;;;8.52;2.70;;;;;;;;;;4995991;28;25089;-73
2023/08/02 13:39:46;;;;;;;12.73;2.88;;;;;;;;;;5001545;28;25071;-72
2023/08/02 13:42:12;;;;;;;9.30;2.20;;;;;;;;;;5000960;28;25097;-74
2023/08/02 13:44:38;;;;;;;15.23;2.42;;;;;;;;;;4999272;28;25147;-73
2023/08/02 13:47:04;;;;;;;11.70;2.42;;;;;;;;;;5000373;28;25080;-71
2023/08/02 13:49:30;;;;;;;13.38;1.95;;;;;;;;;;5012679;28;25129;-72
2023/08/02 13:51:56;;;;;;;10.05;3.38;;;;;;;;;;4992463;28;25083;-72
2023/08/02 13:54:22;;;;;;;16.20;2.30;;;;;;;;;;4996721;28;25082;-72
2023/08/02 13:56:48;;;;;;;16.77;2.97;;;;;;;;;;5000717;28;25067;-72
2023/08/02 13:59:15;;;;;;;14.57;2.33;;;;;;;;;;4996510;28;25134;-73
2023/08/02 14:01:41;;;;;;;11.20;2.33;;;;;;;;;;5005195;28;25088;-72
2023/08/02 14:04:07;;;;;;;12.80;2.17;;;;;;;;;;5003337;28;25094;-73
2023/08/02 14:06:33;;;;;;;9.18;2.72;;;;;;;;;;5001568;28;25162;-71
2023/08/02 14:08:59;;;;;;;16.33;4.10;;;;;;;;;;4999541;28;25048;-73
2023/08/02 14:11:25;;;;;;;15.05;3.40;;;;;;;;;;4991304;28;25078;-74
2023/08/02 14:13:51;;;;;;;13.07;2.95;;;;;;;;;;4996943;28;25072;-71
2023/08/02 14:16:17;;;;;;;17.27;2.92;;;;;;;;;;4997265;28;25061;-71
2023/08/02 14:18:43;;;;;;;11.38;2.38;;;;;;;;;;4997793;28;25068;-72
2023/08/02 14:21:09;;;;;;;14.82;2.92;;;;;;;;;;5007279;28;25119;-69
2023/08/02 14:23:35;;;;;;;9.82;2.38;;;;;;;;;;5000753;28;25045;-71
2023/08/02 14:26:01;;;;;;;11.52;2.75;;;;;;;;;;4995712;28;25056;-72
2023/08/02 14:28:27;;;;;;;9.35;2.08;;;;;;;;;;5001339;28;25082;-74
2023/08/02 14:30:53;;;;;;;11.05;1.73;;;;;;;;;;4983093;28;25061;-71
2023/08/02 14:33:19;;;;;;;12.27;2.33;;;;;;;;;;4996206;28;25109;-71
2023/08/02 14:35:45;;;;;;;9.85;2.45;;;;;;;;;;4993897;28;25124;-70